createdAt,value
2018-09-01T00:01:52.523Z,79.07
2018-09-01T00:04:21.484Z,79.00
2018-09-01T00:06:50.470Z,78.80
2018-09-01T00:09:19.491Z,79.22
2018-09-01T00:11:48.549Z,79.56
2018-09-01T00:14:17.507Z,80.50
2018-09-01T00:16:46.799Z,79.95
2018-09-01T00:19:15.919Z,80.01
2018-09-01T00:21:44.843Z,79.29
2018-09-01T00:24:13.818Z,79.83
2018-09-01T00:26:43.431Z,79.60
2018-09-01T00:29:12.314Z,79.39
2018-09-01T00:31:41.310Z,79.43
2018-09-01T00:34:10.335Z,79.99
2018-09-01T00:36:39.228Z,79.90
2018-09-01T00:39:09.034Z,80.03
2018-09-01T00:41:37.956Z,80.37
2018-09-01T00:44:06.870Z,80.42
2018-09-01T00:46:35.827Z,80.13
2018-09-01T00:49:04.741Z,80.29
2018-09-01T00:51:33.635Z,80.57
2018-09-01T00:54:02.589Z,81.36
2018-09-01T00:56:31.517Z,81.04
2018-09-01T00:59:00.555Z,80.07
2018-09-01T01:01:29.546Z,80.73
2018-09-01T01:03:58.823Z,80.99
2018-09-01T01:06:27.867Z,80.46
2018-09-01T01:14:49.743Z,80.98
2018-09-01T01:17:18.790Z,81.48
2018-09-01T01:19:47.725Z,81.19
2018-09-01T01:22:16.627Z,81.80
2018-09-01T01:24:45.597Z,81.37
2018-09-01T01:27:14.647Z,81.57
2018-09-01T01:29:43.609Z,81.85
2018-09-01T01:32:12.634Z,81.43
2018-09-01T01:34:41.641Z,82.41
2018-09-01T01:37:10.557Z,81.75
2018-09-01T01:42:12.798Z,81.75
2018-09-01T01:44:41.985Z,81.16
2018-09-01T01:47:10.870Z,82.06
2018-09-01T01:49:39.993Z,81.74
2018-09-01T01:52:08.956Z,81.85
2018-09-01T01:54:37.922Z,81.67
2018-09-01T01:57:06.478Z,82.08
2018-09-01T01:59:35.381Z,82.28
2018-09-01T02:02:04.258Z,82.00
2018-09-01T02:04:33.245Z,82.09
2018-09-01T02:07:02.147Z,82.97
2018-09-01T02:09:31.053Z,82.68
2018-09-01T02:11:59.979Z,83.40
2018-09-01T02:14:28.856Z,83.61
2018-09-01T02:16:57.764Z,83.01
2018-09-01T02:19:26.982Z,83.50
2018-09-01T02:21:55.870Z,82.92
2018-09-01T02:24:24.769Z,83.21
2018-09-01T02:26:53.676Z,83.04
2018-09-01T02:29:22.568Z,82.80
2018-09-01T02:31:51.505Z,84.55
2018-09-01T02:34:20.398Z,84.18
2018-09-01T02:36:49.303Z,83.67
2018-09-01T02:39:18.547Z,83.64
2018-09-01T02:41:47.607Z,84.53
2018-09-01T02:44:16.500Z,84.50
2018-09-01T02:46:45.425Z,85.18
2018-09-01T02:49:14.392Z,84.64
2018-09-01T02:51:43.288Z,84.72
2018-09-01T02:54:12.232Z,85.72
2018-09-01T02:56:41.119Z,85.30
2018-09-01T02:59:10.082Z,84.72
2018-09-01T03:04:52.029Z,84.78
2018-09-01T03:07:21.071Z,84.98
2018-09-01T03:09:50.043Z,84.66
2018-09-01T03:12:19.622Z,84.53
2018-09-01T03:17:45.224Z,85.10
2018-09-01T03:20:14.245Z,85.03
2018-09-01T03:22:43.198Z,84.61
2018-09-01T03:25:12.097Z,84.55
2018-09-01T03:27:41.051Z,84.60
2018-09-01T03:30:10.106Z,83.71
2018-09-01T03:32:39.029Z,84.61
2018-09-01T03:35:07.961Z,83.97
2018-09-01T03:37:37.164Z,83.84
2018-09-01T03:40:06.792Z,84.59
2018-09-01T03:42:35.790Z,84.19
2018-09-01T03:45:04.894Z,84.26
2018-09-01T03:47:33.817Z,84.40
2018-09-01T03:50:02.755Z,84.26
2018-09-01T03:52:31.654Z,84.01
2018-09-01T03:55:00.597Z,84.55
2018-09-01T03:57:29.448Z,84.06
2018-09-01T03:59:58.354Z,84.68
2018-09-01T04:02:27.271Z,84.97
2018-09-01T04:04:56.160Z,84.97
2018-09-01T04:07:25.062Z,85.18
2018-09-01T04:09:54.098Z,85.30
2018-09-01T04:12:22.993Z,85.52
2018-09-01T04:14:51.885Z,85.93
2018-09-01T04:17:20.788Z,85.53
2018-09-01T04:19:50.264Z,85.60
2018-09-01T04:22:19.134Z,85.49
2018-09-01T04:24:48.099Z,84.89
2018-09-01T04:27:17.264Z,85.61
2018-09-01T04:29:46.164Z,85.71
2018-09-01T04:32:15.046Z,85.89
2018-09-01T04:34:44.005Z,86.41
2018-09-01T04:37:12.910Z,86.54
2018-09-01T04:39:41.804Z,85.94
2018-09-01T04:42:10.698Z,85.86
2018-09-01T04:44:39.608Z,85.87
2018-09-01T04:47:08.537Z,86.15
2018-09-01T04:49:37.433Z,85.80
2018-09-01T04:52:06.355Z,85.59
2018-09-01T04:54:35.245Z,85.47
2018-09-01T04:57:04.154Z,85.04
2018-09-01T04:59:33.070Z,85.03
2018-09-01T05:02:01.979Z,85.04
2018-09-01T05:04:30.828Z,85.07
2018-09-01T05:06:59.722Z,85.29
2018-09-01T05:09:28.631Z,85.20
2018-09-01T05:11:57.543Z,85.52
2018-09-01T05:14:26.458Z,85.86
2018-09-01T05:16:55.323Z,86.04
2018-09-01T05:19:24.232Z,86.08
2018-09-01T05:21:53.131Z,85.61
2018-09-01T05:24:22.073Z,85.91
2018-09-01T05:26:51.259Z,85.60
2018-09-01T05:29:20.155Z,85.71
2018-09-01T05:31:54.006Z,84.77
2018-09-01T05:34:23.062Z,86.40
2018-09-01T05:36:51.935Z,86.20
2018-09-01T05:39:20.860Z,86.04
2018-09-01T05:41:50.324Z,85.82
2018-09-01T05:44:19.188Z,86.59
2018-09-01T05:46:48.142Z,85.60
2018-09-01T05:49:17.081Z,85.70
2018-09-01T05:51:45.963Z,85.76
2018-09-01T05:54:14.857Z,85.43
2018-09-01T05:56:43.766Z,86.72
2018-09-01T05:59:12.669Z,86.15
2018-09-01T06:01:41.589Z,86.29
2018-09-01T06:04:10.546Z,85.63
2018-09-01T06:06:39.461Z,85.22
2018-09-01T06:09:09.578Z,85.37
2018-09-01T06:11:38.651Z,86.19
2018-09-01T06:14:08.056Z,85.47
2018-09-01T06:16:37.306Z,85.78
2018-09-01T06:19:06.591Z,85.10
2018-09-01T06:21:35.429Z,86.14
2018-09-01T06:24:04.353Z,86.33
2018-09-01T06:26:33.271Z,86.35
2018-09-01T06:29:07.411Z,85.33
2018-09-01T06:31:36.432Z,85.38
2018-09-01T06:34:05.528Z,84.70
2018-09-01T06:36:34.514Z,84.70
2018-09-01T06:39:03.519Z,87.02
2018-09-01T06:41:32.436Z,87.04
2018-09-01T06:44:01.342Z,86.52
2018-09-01T06:46:30.285Z,85.99
2018-09-01T06:48:59.213Z,87.69
2018-09-01T06:51:28.150Z,87.39
2018-09-01T06:53:57.133Z,87.50
2018-09-01T06:56:26.161Z,87.07
2018-09-01T06:58:55.137Z,87.69
2018-09-01T07:01:24.072Z,89.03
2018-09-01T07:03:52.998Z,86.39
2018-09-01T07:06:21.943Z,87.77
2018-09-01T07:08:51.008Z,87.12
2018-09-01T07:11:19.789Z,87.16
2018-09-01T07:13:49.135Z,86.89
2018-09-01T07:16:18.027Z,87.21
2018-09-01T07:18:46.922Z,87.91
2018-09-01T07:21:15.811Z,87.46
2018-09-01T07:23:44.721Z,87.60
2018-09-01T07:26:13.671Z,86.93
2018-09-01T07:28:42.561Z,86.54
2018-09-01T07:31:11.921Z,85.67
2018-09-01T07:33:40.513Z,87.49
2018-09-01T07:36:09.457Z,85.35
2018-09-01T07:38:38.338Z,86.23
2018-09-01T07:41:08.075Z,85.75
2018-09-01T07:43:37.020Z,87.44
2018-09-01T07:46:05.973Z,87.09
2018-09-01T07:48:34.923Z,87.80
2018-09-01T07:51:04.020Z,88.51
2018-09-01T07:53:32.938Z,88.12
2018-09-01T07:56:01.887Z,87.76
2018-09-01T07:58:30.759Z,87.01
2018-09-01T08:00:59.717Z,86.44
2018-09-01T08:03:28.649Z,87.31
2018-09-01T08:05:57.503Z,87.49
2018-09-01T08:08:26.431Z,87.03
2018-09-01T08:10:55.505Z,87.38
2018-09-01T08:13:24.458Z,86.94
2018-09-01T08:15:53.345Z,87.71
2018-09-01T08:18:22.599Z,87.10
2018-09-01T08:26:45.195Z,87.49
2018-09-01T08:29:14.111Z,87.62
2018-09-01T08:31:43.014Z,87.32
2018-09-01T08:34:11.935Z,86.92
2018-09-01T08:36:40.871Z,87.50
2018-09-01T08:39:10.354Z,87.82
2018-09-01T08:41:39.296Z,86.80
2018-09-01T08:44:08.571Z,87.24
2018-09-01T08:46:37.492Z,87.13
2018-09-01T08:49:06.366Z,85.88
2018-09-01T08:51:35.304Z,84.97
2018-09-01T08:54:04.370Z,85.08
2018-09-01T08:56:33.304Z,84.80
2018-09-01T08:59:02.107Z,84.78
2018-09-01T09:01:31.084Z,84.55
2018-09-01T09:04:00.000Z,83.75
2018-09-01T09:06:28.944Z,84.04
2018-09-01T09:08:57.903Z,83.20
2018-09-01T09:11:26.821Z,83.70
2018-09-01T09:13:55.672Z,83.63
2018-09-01T09:16:24.598Z,84.10
2018-09-01T09:18:53.469Z,83.56
2018-09-01T09:21:22.336Z,84.07
2018-09-01T09:23:51.287Z,83.22
2018-09-01T09:26:20.167Z,82.01
2018-09-01T09:28:49.104Z,81.88
2018-09-01T09:31:17.978Z,81.99
2018-09-01T09:33:46.943Z,81.49
2018-09-01T09:36:15.845Z,81.20
2018-09-01T09:38:44.741Z,81.44
2018-09-01T09:41:13.698Z,80.85
2018-09-01T09:43:42.571Z,79.92
2018-09-01T09:46:11.489Z,80.61
2018-09-01T09:48:40.403Z,82.05
2018-09-01T09:51:09.279Z,82.31
2018-09-01T09:53:38.172Z,81.41
2018-09-01T09:56:07.087Z,81.51
2018-09-01T09:58:36.005Z,80.24
2018-09-01T10:01:05.431Z,80.91
2018-09-01T10:03:36.260Z,81.09
2018-09-01T10:06:05.208Z,80.30
2018-09-01T10:08:34.250Z,78.72
2018-09-01T10:11:03.217Z,78.01
2018-09-01T10:13:32.050Z,77.37
2018-09-01T10:16:01.015Z,78.80
2018-09-01T10:18:29.852Z,76.73
2018-09-01T10:20:58.756Z,77.06
2018-09-01T10:23:27.639Z,77.80
2018-09-01T10:25:56.528Z,78.55
2018-09-01T10:28:25.762Z,77.22
2018-09-01T10:30:54.707Z,77.61
2018-09-01T10:33:23.924Z,74.67
2018-09-01T10:35:52.948Z,76.05
2018-09-01T10:38:21.873Z,75.62
2018-09-01T10:40:50.926Z,74.98
2018-09-01T10:43:19.803Z,75.06
2018-09-01T10:45:49.102Z,75.32
2018-09-01T10:48:18.128Z,74.05
2018-09-01T10:50:47.024Z,73.49
2018-09-01T10:53:15.919Z,73.45
2018-09-01T10:55:44.796Z,72.81
2018-09-01T10:58:13.665Z,72.93
2018-09-01T11:00:42.973Z,73.56
2018-09-01T11:03:11.898Z,72.28
2018-09-01T11:05:40.812Z,71.97
2018-09-01T11:08:09.865Z,71.72
2018-09-01T11:10:38.772Z,69.57
2018-09-01T11:13:07.671Z,70.73
2018-09-01T11:15:36.631Z,69.28
2018-09-01T11:18:05.589Z,67.51
2018-09-01T11:20:34.517Z,67.96
2018-09-01T11:23:03.389Z,67.68
2018-09-01T11:25:32.305Z,68.07
2018-09-01T11:28:01.304Z,69.04
2018-09-01T11:30:30.150Z,68.12
2018-09-01T11:32:59.030Z,65.94
2018-09-01T11:35:27.904Z,64.73
2018-09-01T11:37:56.802Z,65.36
2018-09-01T11:40:25.671Z,66.74
2018-09-01T11:42:54.716Z,65.25
2018-09-01T11:45:23.529Z,63.59
2018-09-01T11:47:52.433Z,65.85
2018-09-01T11:50:21.544Z,67.93
2018-09-01T11:52:50.417Z,66.65
2018-09-01T11:55:19.298Z,65.89
2018-09-01T11:57:48.309Z,65.42
2018-09-01T12:00:17.232Z,66.44
2018-09-01T12:02:46.103Z,67.38
2018-09-01T12:05:15.019Z,67.38
2018-09-01T12:07:44.220Z,66.24
2018-09-01T12:10:13.115Z,66.01
2018-09-01T12:12:41.993Z,67.61
2018-09-01T12:15:10.896Z,66.37
2018-09-01T12:17:39.827Z,67.14
2018-09-01T12:20:08.711Z,66.68
2018-09-01T12:22:37.624Z,67.21
2018-09-01T12:25:06.604Z,66.84
2018-09-01T12:27:35.509Z,66.71
2018-09-01T12:30:04.693Z,66.51
2018-09-01T12:32:33.621Z,66.71
2018-09-01T12:35:02.533Z,65.66
2018-09-01T12:37:31.542Z,65.91
2018-09-01T12:40:00.474Z,64.95
2018-09-01T12:42:29.351Z,63.16
2018-09-01T12:44:58.265Z,62.81
2018-09-01T12:47:27.190Z,60.67
2018-09-01T12:49:56.106Z,59.64
2018-09-01T12:52:25.027Z,58.54
2018-09-01T12:54:53.954Z,59.73
2018-09-01T12:57:22.814Z,58.78
2018-09-01T12:59:51.803Z,60.70
2018-09-01T13:02:22.265Z,61.91
2018-09-01T13:04:51.217Z,61.99
2018-09-01T13:07:21.798Z,61.28
2018-09-01T13:09:50.704Z,61.11
2018-09-01T13:12:19.574Z,61.92
2018-09-01T13:14:48.477Z,61.70
2018-09-01T13:17:17.577Z,60.95
2018-09-01T13:19:46.514Z,62.08
2018-09-01T13:22:15.628Z,61.21
2018-09-01T13:24:44.542Z,60.98
2018-09-01T13:27:13.445Z,60.82
2018-09-01T13:29:42.521Z,59.28
2018-09-01T13:32:11.438Z,59.74
2018-09-01T13:34:40.355Z,59.03
2018-09-01T13:37:14.279Z,58.44
2018-09-01T13:39:43.165Z,60.35
2018-09-01T13:42:12.069Z,59.20
2018-09-01T13:44:41.020Z,58.22
2018-09-01T13:47:09.846Z,59.42
2018-09-01T13:49:38.748Z,59.13
2018-09-01T13:52:07.648Z,58.94
2018-09-01T13:54:36.573Z,57.65
2018-09-01T13:57:05.686Z,58.25
2018-09-01T13:59:34.538Z,56.91
2018-09-01T14:02:03.453Z,58.06
2018-09-01T14:04:32.411Z,56.89
2018-09-01T14:07:01.307Z,58.08
2018-09-01T14:09:30.207Z,57.81
2018-09-01T14:11:59.425Z,57.64
2018-09-01T14:14:28.394Z,57.64
2018-09-01T14:16:57.234Z,57.11
2018-09-01T14:19:26.166Z,57.01
2018-09-01T14:21:55.049Z,57.29
2018-09-01T14:24:23.971Z,55.39
2018-09-01T14:26:52.911Z,54.63
2018-09-01T14:29:21.776Z,56.03
2018-09-01T14:31:50.721Z,55.95
2018-09-01T14:34:19.725Z,56.65
2018-09-01T14:36:48.958Z,56.33
2018-09-01T14:39:17.860Z,56.14
2018-09-01T14:41:46.756Z,55.82
2018-09-01T14:44:15.651Z,55.07
2018-09-01T14:46:44.551Z,55.49
2018-09-01T14:49:13.398Z,54.86
2018-09-01T14:51:42.296Z,56.19
2018-09-01T14:54:11.228Z,55.77
2018-09-01T14:56:40.127Z,54.39
2018-09-01T14:59:09.078Z,54.79
2018-09-01T15:01:37.973Z,56.01
2018-09-01T15:04:07.187Z,56.49
2018-09-01T15:06:36.095Z,55.74
2018-09-01T15:09:06.233Z,55.86
2018-09-01T15:11:35.183Z,55.22
2018-09-01T15:14:04.200Z,55.42
2018-09-01T15:16:33.144Z,54.87
2018-09-01T15:22:12.164Z,54.81
2018-09-01T15:24:41.092Z,54.00
2018-09-01T15:27:10.040Z,53.98
2018-09-01T15:29:38.941Z,54.09
2018-09-01T15:32:07.860Z,54.72
2018-09-01T15:34:36.750Z,54.43
2018-09-01T15:37:05.702Z,53.63
2018-09-01T15:39:34.640Z,53.07
2018-09-01T15:42:04.031Z,54.20
2018-09-01T15:44:32.943Z,53.34
2018-09-01T15:47:01.883Z,54.17
2018-09-01T15:49:31.165Z,55.10
2018-09-01T15:52:00.084Z,54.77
2018-09-01T15:54:29.064Z,54.48
2018-09-01T15:56:58.248Z,54.18
2018-09-01T15:59:27.108Z,54.19
2018-09-01T16:01:56.049Z,54.48
2018-09-01T16:04:25.232Z,54.31
2018-09-01T16:06:54.125Z,55.44
2018-09-01T16:09:23.082Z,54.04
2018-09-01T16:11:52.002Z,55.36
2018-09-01T16:14:20.877Z,55.70
2018-09-01T16:16:49.802Z,54.64
2018-09-01T16:19:18.716Z,54.45
2018-09-01T16:21:47.658Z,54.93
2018-09-01T16:24:16.561Z,54.91
2018-09-01T16:26:45.461Z,53.83
2018-09-01T16:29:14.379Z,53.54
2018-09-01T16:31:43.478Z,53.90
2018-09-01T16:34:12.857Z,53.63
2018-09-01T16:36:42.084Z,53.83
2018-09-01T16:39:10.960Z,54.16
2018-09-01T16:41:39.862Z,54.00
2018-09-01T16:44:08.835Z,52.76
2018-09-01T16:46:37.738Z,53.45
2018-09-01T16:49:06.623Z,52.42
2018-09-01T16:51:35.574Z,53.39
2018-09-01T16:54:04.464Z,53.04
2018-09-01T16:56:33.383Z,53.38
2018-09-01T16:59:02.327Z,53.47
2018-09-01T17:01:31.401Z,53.92
2018-09-01T17:04:00.422Z,54.76
2018-09-01T17:06:31.311Z,54.01
2018-09-01T17:09:00.393Z,54.38
2018-09-01T17:11:29.718Z,55.23
2018-09-01T17:13:58.607Z,55.98
2018-09-01T17:16:27.684Z,55.28
2018-09-01T17:18:56.602Z,55.40
2018-09-01T17:21:30.601Z,55.23
2018-09-01T17:24:02.360Z,55.32
2018-09-01T17:26:38.752Z,55.60
2018-09-01T17:29:15.893Z,55.92
2018-09-01T17:31:54.091Z,56.37
2018-09-01T17:34:26.925Z,56.37
2018-09-01T17:37:02.761Z,55.48
2018-09-01T17:39:37.371Z,56.46
2018-09-01T17:42:10.496Z,56.35
2018-09-01T17:44:45.493Z,56.95
2018-09-01T17:47:16.291Z,59.04
2018-09-01T17:49:45.247Z,57.99
2018-09-01T17:52:14.117Z,59.29
2018-09-01T17:54:43.051Z,59.66
2018-09-01T17:57:12.137Z,58.63
2018-09-01T17:59:41.030Z,59.86
2018-09-01T18:02:10.299Z,60.61
2018-09-01T18:04:39.167Z,61.53
2018-09-01T18:07:08.151Z,61.75
2018-09-01T18:09:37.348Z,60.78
2018-09-01T18:12:06.340Z,59.66
2018-09-01T18:14:35.220Z,60.77
2018-09-01T18:17:04.157Z,59.89
2018-09-01T18:19:33.091Z,60.17
2018-09-01T18:22:02.005Z,59.66
2018-09-01T18:24:30.943Z,60.50
2018-09-01T18:26:59.992Z,60.01
2018-09-01T18:29:28.996Z,60.72
2018-09-01T18:31:57.898Z,59.84
2018-09-01T18:34:26.820Z,60.02
2018-09-01T18:36:55.706Z,60.94
2018-09-01T18:39:24.644Z,60.38
2018-09-01T18:41:53.561Z,59.61
2018-09-01T18:44:22.864Z,59.81
2018-09-01T18:46:51.752Z,60.44
2018-09-01T18:49:20.724Z,60.48
2018-09-01T18:51:50.890Z,59.59
2018-09-01T18:54:20.268Z,59.74
2018-09-01T18:56:49.094Z,59.80
2018-09-01T18:59:18.024Z,62.04
2018-09-01T19:01:46.956Z,62.42
2018-09-01T19:04:15.806Z,62.39
2018-09-01T19:06:44.789Z,62.20
2018-09-01T19:09:13.822Z,62.65
2018-09-01T19:11:43.344Z,62.15
2018-09-01T19:14:12.368Z,61.22
2018-09-01T19:16:41.168Z,61.43
2018-09-01T19:19:10.097Z,62.28
2018-09-01T19:21:39.057Z,63.15
2018-09-01T19:24:07.978Z,62.64
2018-09-01T19:26:36.893Z,62.13
2018-09-01T19:29:05.828Z,62.38
2018-09-01T19:31:34.752Z,62.39
2018-09-01T19:34:03.667Z,62.88
2018-09-01T19:36:32.582Z,62.93
2018-09-01T19:39:01.523Z,62.59
2018-09-01T19:41:30.417Z,62.97
2018-09-01T19:43:59.588Z,62.94
2018-09-01T19:46:28.707Z,63.11
2018-09-01T19:48:57.642Z,63.14
2018-09-01T19:51:26.674Z,63.89
2018-09-01T19:53:56.088Z,64.77
2018-09-01T19:56:25.082Z,64.46
2018-09-01T19:58:54.191Z,64.52
2018-09-01T20:01:23.244Z,64.38
2018-09-01T20:03:52.161Z,65.17
2018-09-01T20:06:21.356Z,64.43
2018-09-01T20:08:50.862Z,64.41
2018-09-01T20:11:20.336Z,66.27
2018-09-01T20:13:49.794Z,67.30
2018-09-01T20:16:18.693Z,67.30
2018-09-01T20:18:47.715Z,67.41
2018-09-01T20:21:16.595Z,67.66
2018-09-01T20:23:45.565Z,69.33
2018-09-01T20:26:14.434Z,68.66
2018-09-01T20:28:43.505Z,69.87
2018-09-01T20:31:12.415Z,69.36
2018-09-01T20:33:41.308Z,69.31
2018-09-01T20:36:15.922Z,69.78
2018-09-01T20:38:44.898Z,70.09
2018-09-01T20:41:13.853Z,69.23
2018-09-01T20:43:43.012Z,70.33
2018-09-01T20:46:11.913Z,71.14
2018-09-01T20:48:40.862Z,71.17
2018-09-01T20:51:09.783Z,72.04
2018-09-01T20:53:39.064Z,70.85
2018-09-01T20:56:08.009Z,70.14
2018-09-01T20:58:37.052Z,70.69
2018-09-01T21:01:06.344Z,69.99
2018-09-01T21:03:35.347Z,70.52
2018-09-01T21:06:04.303Z,70.79
2018-09-01T21:08:33.495Z,69.79
2018-09-01T21:11:02.424Z,72.02
2018-09-01T21:13:31.384Z,72.99
2018-09-01T21:16:00.332Z,72.31
2018-09-01T21:18:29.257Z,72.23
2018-09-01T21:20:58.245Z,71.89
2018-09-01T21:23:27.255Z,72.62
2018-09-01T21:25:56.219Z,72.96
2018-09-01T21:28:25.511Z,73.70
2018-09-01T21:30:54.384Z,73.44
2018-09-01T21:33:23.303Z,73.15
2018-09-01T21:35:52.214Z,72.56
2018-09-01T21:38:21.227Z,74.41
2018-09-01T21:40:50.497Z,74.12
2018-09-01T21:43:19.361Z,74.10
2018-09-01T21:45:48.236Z,73.44
2018-09-01T21:48:17.193Z,74.46
2018-09-01T21:50:46.105Z,74.34
2018-09-01T21:59:08.258Z,73.54
2018-09-01T22:01:37.754Z,73.83
2018-09-01T22:04:06.723Z,73.58
2018-09-01T22:06:35.678Z,73.68
2018-09-01T22:09:05.387Z,73.74
2018-09-01T22:11:34.435Z,74.19
2018-09-01T22:14:03.448Z,73.62
2018-09-01T22:16:32.497Z,74.31
2018-09-01T22:19:01.393Z,74.62
2018-09-01T22:21:30.356Z,73.91
2018-09-01T22:24:01.809Z,74.41
2018-09-01T22:26:30.850Z,74.07
2018-09-01T22:29:00.745Z,73.94
2018-09-01T22:31:30.533Z,73.85
2018-09-01T22:33:59.555Z,73.99
2018-09-01T22:36:28.456Z,74.65
2018-09-01T22:38:57.410Z,73.69
2018-09-01T22:41:26.287Z,74.68
2018-09-01T22:43:55.250Z,75.29
2018-09-01T22:46:24.544Z,74.99
2018-09-01T22:48:53.500Z,74.78
2018-09-01T22:51:22.719Z,74.78
2018-09-01T22:53:51.646Z,75.35
2018-09-01T22:56:20.747Z,74.79
2018-09-01T22:58:49.643Z,74.03
2018-09-01T23:01:18.602Z,75.11
2018-09-01T23:03:47.520Z,76.28
2018-09-01T23:06:16.465Z,76.75
2018-09-01T23:08:45.477Z,75.40
2018-09-01T23:11:14.438Z,76.24
2018-09-01T23:13:43.344Z,76.71
2018-09-01T23:16:12.465Z,76.54
2018-09-01T23:18:41.547Z,75.11
2018-09-01T23:21:10.436Z,75.23
2018-09-01T23:23:39.440Z,75.53
2018-09-01T23:26:08.324Z,76.44
2018-09-01T23:28:37.233Z,75.34
2018-09-01T23:31:06.162Z,75.26
2018-09-01T23:33:35.071Z,74.74
2018-09-01T23:36:04.094Z,75.41
2018-09-01T23:38:32.958Z,75.45
2018-09-01T23:41:01.863Z,76.42
2018-09-01T23:43:30.879Z,76.11
2018-09-01T23:45:59.772Z,76.83
2018-09-01T23:48:28.872Z,77.15
2018-09-01T23:50:57.782Z,77.61
2018-09-01T23:53:26.720Z,76.69
2018-09-01T23:55:55.678Z,77.58
2018-09-01T23:58:24.993Z,77.08
